sensor_id;sensor_type;location;lat;lon;timestamp;pressure;altitude;pressure_sealevel;temperature;humidity
63654;BME280;49809;47.418;19.080;2023-04-07T00:03:23;100288.75;;;2.77;96.69
63654;BME280;49809;47.418;19.080;2023-04-07T00:07:11;100281.91;;;2.76;97.40
63654;BME280;49809;47.418;19.080;2023-04-07T00:11:04;100281.13;;;2.69;96.56
63654;BME280;49809;47.418;19.080;2023-04-07T00:19:30;100283.53;;;2.77;95.30
63654;BME280;49809;47.418;19.080;2023-04-07T00:22:56;100284.75;;;2.75;96.38
63654;BME280;49809;47.418;19.080;2023-04-07T00:25:58;100283.94;;;2.61;96.03
63654;BME280;49809;47.418;19.080;2023-04-07T00:29:25;100283.53;;;2.64;95.37
63654;BME280;49809;47.418;19.080;2023-04-07T00:32:49;100281.13;;;2.69;96.16
63654;BME280;49809;47.418;19.080;2023-04-07T00:36:42;100272.06;;;2.72;96.47
63654;BME280;49809;47.418;19.080;2023-04-07T00:39:59;100276.31;;;2.79;96.38
63654;BME280;49809;47.418;19.080;2023-04-07T00:43:23;100269.88;;;2.75;95.93
63654;BME280;49809;47.418;19.080;2023-04-07T00:46:50;100266.88;;;2.85;95.78
63654;BME280;49809;47.418;19.080;2023-04-07T00:54:29;100261.22;;;2.88;95.68
63654;BME280;49809;47.418;19.080;2023-04-07T00:58:33;100260.81;;;2.91;96.29
63654;BME280;49809;47.418;19.080;2023-04-07T01:02:35;100257.81;;;2.87;95.99
63654;BME280;49809;47.418;19.080;2023-04-07T01:06:28;100250.97;;;2.93;95.42
63654;BME280;49809;47.418;19.080;2023-04-07T01:10:16;100258.00;;;2.79;94.88
63654;BME280;49809;47.418;19.080;2023-04-07T01:14:09;100248.75;;;2.83;94.09
63654;BME280;49809;47.418;19.080;2023-04-07T01:17:42;100245.94;;;2.91;95.22
63654;BME280;49809;47.418;19.080;2023-04-07T01:21:16;100240.09;;;2.96;94.29
63654;BME280;49809;47.418;19.080;2023-04-07T01:32:51;100241.72;;;2.77;97.50
63654;BME280;49809;47.418;19.080;2023-04-07T01:40:29;100233.28;;;2.69;95.49
63654;BME280;49809;47.418;19.080;2023-04-07T01:44:36;100234.88;;;2.63;95.62
63654;BME280;49809;47.418;19.080;2023-04-07T01:56:28;100227.47;;;2.60;97.71
63654;BME280;49809;47.418;19.080;2023-04-07T01:59:35;100230.25;;;2.58;97.90
63654;BME280;49809;47.418;19.080;2023-04-07T02:03:11;100234.50;;;2.59;97.76
63654;BME280;49809;47.418;19.080;2023-04-07T02:06:56;100241.72;;;2.57;99.11
63654;BME280;49809;47.418;19.080;2023-04-07T02:11:01;100237.28;;;2.58;98.16
63654;BME280;49809;47.418;19.080;2023-04-07T02:14:45;100230.87;;;2.60;98.35
63654;BME280;49809;47.418;19.080;2023-04-07T02:18:49;100224.03;;;2.59;99.18
63654;BME280;49809;47.418;19.080;2023-04-07T02:22:52;100220.00;;;2.57;99.06
63654;BME280;49809;47.418;19.080;2023-04-07T02:26:36;100229.44;;;2.58;99.21
63654;BME280;49809;47.418;19.080;2023-04-07T02:30:23;100232.06;;;2.58;99.02
63654;BME280;49809;47.418;19.080;2023-04-07T02:34:28;100233.69;;;2.59;99.66
63654;BME280;49809;47.418;19.080;2023-04-07T02:38:43;100233.06;;;2.57;100.00
63654;BME280;49809;47.418;19.080;2023-04-07T02:42:10;100220.59;;;2.52;99.27
63654;BME280;49809;47.418;19.080;2023-04-07T02:46:14;100227.44;;;2.53;98.97
63654;BME280;49809;47.418;19.080;2023-04-07T02:49:59;100228.84;;;2.43;97.82
63654;BME280;49809;47.418;19.080;2023-04-07T02:53:52;100233.87;;;2.51;97.82
63654;BME280;49809;47.418;19.080;2023-04-07T02:57:28;100230.66;;;2.49;96.42
63654;BME280;49809;47.418;19.080;2023-04-07T03:01:38;100226.25;;;2.56;97.69
63654;BME280;49809;47.418;19.080;2023-04-07T03:05:25;100215.97;;;2.48;93.72
63654;BME280;49809;47.418;19.080;2023-04-07T03:09:37;100221.62;;;2.58;93.02
63654;BME280;49809;47.418;19.080;2023-04-07T03:13:42;100223.44;;;2.64;91.92
63654;BME280;49809;47.418;19.080;2023-04-07T03:17:27;100229.25;;;2.53;91.06
63654;BME280;49809;47.418;19.080;2023-04-07T03:21:30;100227.03;;;2.63;90.34
63654;BME280;49809;47.418;19.080;2023-04-07T03:25:18;100224.84;;;2.60;90.31
63654;BME280;49809;47.418;19.080;2023-04-07T03:29:28;100224.44;;;2.56;90.47
63654;BME280;49809;47.418;19.080;2023-04-07T03:33:37;100223.25;;;2.66;90.85
63654;BME280;49809;47.418;19.080;2023-04-07T03:37:42;100225.03;;;2.78;91.24
63654;BME280;49809;47.418;19.080;2023-04-07T03:41:54;100220.63;;;2.79;90.50
63654;BME280;49809;47.418;19.080;2023-04-07T03:45:38;100222.81;;;2.69;89.76
63654;BME280;49809;47.418;19.080;2023-04-07T03:49:44;100213.37;;;2.74;90.40
63654;BME280;49809;47.418;19.080;2023-04-07T03:53:30;100224.84;;;2.73;91.01
63654;BME280;49809;47.418;19.080;2023-04-07T03:57:34;100221.22;;;2.81;90.49
63654;BME280;49809;47.418;19.080;2023-04-07T04:01:19;100227.03;;;2.63;91.26
63654;BME280;49809;47.418;19.080;2023-04-07T04:05:04;100230.47;;;2.70;91.77
63654;BME280;49809;47.418;19.080;2023-04-07T04:08:28;100239.31;;;2.62;91.88
63654;BME280;49809;47.418;19.080;2023-04-07T04:12:14;100241.50;;;2.72;92.02
63654;BME280;49809;47.418;19.080;2023-04-07T04:16:30;100237.69;;;2.68;92.45
63654;BME280;49809;47.418;19.080;2023-04-07T04:20:41;100242.50;;;2.71;91.45
63654;BME280;49809;47.418;19.080;2023-04-07T04:24:30;100243.34;;;2.78;92.06
63654;BME280;49809;47.418;19.080;2023-04-07T04:28:36;100239.50;;;2.74;92.39
63654;BME280;49809;47.418;19.080;2023-04-07T04:32:49;100249.16;;;2.87;92.01
63654;BME280;49809;47.418;19.080;2023-04-07T04:36:17;100248.53;;;2.91;90.94
63654;BME280;49809;47.418;19.080;2023-04-07T04:40:09;100247.72;;;3.11;90.42
63654;BME280;49809;47.418;19.080;2023-04-07T04:43:59;100233.28;;;2.95;89.88
63654;BME280;49809;47.418;19.080;2023-04-07T04:47:35;100245.31;;;3.09;90.08
63654;BME280;49809;47.418;19.080;2023-04-07T04:51:47;100254.56;;;3.18;89.27
63654;BME280;49809;47.418;19.080;2023-04-07T04:55:56;100258.94;;;3.31;89.27
63654;BME280;49809;47.418;19.080;2023-04-07T04:59:40;100264.19;;;3.31;88.64
63654;BME280;49809;47.418;19.080;2023-04-07T05:03:46;100269.19;;;3.45;87.85
63654;BME280;49809;47.418;19.080;2023-04-07T05:07:32;100267.41;;;3.33;87.93
63654;BME280;49809;47.418;19.080;2023-04-07T05:11:19;100273.59;;;3.45;88.71
63654;BME280;49809;47.418;19.080;2023-04-07T05:15:22;100264.56;;;3.41;89.43
63654;BME280;49809;47.418;19.080;2023-04-07T05:19:19;100271.78;;;3.45;88.87
63654;BME280;49809;47.418;19.080;2023-04-07T05:23:17;100281.22;;;3.66;86.96
63654;BME280;49809;47.418;19.080;2023-04-07T05:27:26;100281.41;;;3.65;86.39
63654;BME280;49809;47.418;19.080;2023-04-07T05:31:29;100275.34;;;3.77;86.29
63654;BME280;49809;47.418;19.080;2023-04-07T05:35:00;100277.72;;;3.85;85.24
63654;BME280;49809;47.418;19.080;2023-04-07T05:39:05;100280.09;;;3.93;84.37
63654;BME280;49809;47.418;19.080;2023-04-07T05:43:18;100280.81;;;4.07;83.18
63654;BME280;49809;47.418;19.080;2023-04-07T05:46:53;100283.31;;;3.96;83.83
63654;BME280;49809;47.418;19.080;2023-04-07T05:51:00;100293.72;;;4.09;84.09
63654;BME280;49809;47.418;19.080;2023-04-07T05:55:05;100289.91;;;4.11;82.55
63654;BME280;49809;47.418;19.080;2023-04-07T05:59:14;100286.41;;;4.24;82.21
63654;BME280;49809;47.418;19.080;2023-04-07T06:02:34;100294.44;;;4.29;81.79
63654;BME280;49809;47.418;19.080;2023-04-07T06:06:09;100294.44;;;4.29;81.67
63654;BME280;49809;47.418;19.080;2023-04-07T06:09:56;100299.94;;;4.52;80.97
63654;BME280;49809;47.418;19.080;2023-04-07T06:13:44;100284.25;;;4.46;81.19
63654;BME280;49809;47.418;19.080;2023-04-07T06:17:44;100289.53;;;4.39;81.56
63654;BME280;49809;47.418;19.080;2023-04-07T06:21:32;100286.84;;;4.77;79.93
63654;BME280;49809;47.418;19.080;2023-04-07T06:25:23;100293.66;;;4.85;79.82
63654;BME280;49809;47.418;19.080;2023-04-07T06:28:52;100292.47;;;4.80;78.70
63654;BME280;49809;47.418;19.080;2023-04-07T06:32:31;100291.47;;;4.81;80.42
63654;BME280;49809;47.418;19.080;2023-04-07T06:36:17;100290.44;;;4.82;78.72
63654;BME280;49809;47.418;19.080;2023-04-07T06:39:38;100297.16;;;5.03;78.89
63654;BME280;49809;47.418;19.080;2023-04-07T06:42:56;100299.53;;;5.05;78.72
63654;BME280;49809;47.418;19.080;2023-04-07T06:46:30;100302.63;;;5.20;79.29
63654;BME280;49809;47.418;19.080;2023-04-07T06:50:06;100306.72;;;5.16;79.02
63654;BME280;49809;47.418;19.080;2023-04-07T06:53:23;100304.41;;;5.01;80.08
63654;BME280;49809;47.418;19.080;2023-04-07T06:56:56;100312.28;;;5.01;79.32
63654;BME280;49809;47.418;19.080;2023-04-07T07:00:11;100310.81;;;5.30;76.13
63654;BME280;49809;47.418;19.080;2023-04-07T07:03:26;100316.41;;;5.15;76.17
63654;BME280;49809;47.418;19.080;2023-04-07T07:06:50;100323.47;;;5.15;76.27
63654;BME280;49809;47.418;19.080;2023-04-07T07:10:24;100320.12;;;5.08;77.46
63654;BME280;49809;47.418;19.080;2023-04-07T07:13:30;100330.44;;;5.28;77.55
63654;BME280;49809;47.418;19.080;2023-04-07T07:16:58;100336.19;;;5.18;77.09
63654;BME280;49809;47.418;19.080;2023-04-07T07:20:05;100342.91;;;5.32;78.45
63654;BME280;49809;47.418;19.080;2023-04-07T07:23:43;100353.50;;;5.19;80.44
63654;BME280;49809;47.418;19.080;2023-04-07T07:26:53;100347.25;;;5.45;76.34
63654;BME280;49809;47.418;19.080;2023-04-07T07:30:35;100353.84;;;5.29;78.28
63654;BME280;49809;47.418;19.080;2023-04-07T07:34:04;100360.69;;;5.30;79.23
63654;BME280;49809;47.418;19.080;2023-04-07T07:37:22;100358.44;;;5.09;81.25
63654;BME280;49809;47.418;19.080;2023-04-07T07:40:58;100369.41;;;4.99;83.32
63654;BME280;49809;47.418;19.080;2023-04-07T07:52:24;100373.38;;;5.08;87.33
63654;BME280;49809;47.418;19.080;2023-04-07T07:59:32;100383.37;;;4.93;90.43
63654;BME280;49809;47.418;19.080;2023-04-07T08:02:58;100384.34;;;4.99;90.19
63654;BME280;49809;47.418;19.080;2023-04-07T08:06:39;100399.41;;;5.10;86.78
63654;BME280;49809;47.418;19.080;2023-04-07T08:10:01;100396.06;;;4.96;88.23
63654;BME280;49809;47.418;19.080;2023-04-07T08:13:27;100395.50;;;5.19;87.08
63654;BME280;49809;47.418;19.080;2023-04-07T08:17:10;100402.00;;;5.41;86.71
63654;BME280;49809;47.418;19.080;2023-04-07T08:20:42;100405.19;;;5.43;85.86
63654;BME280;49809;47.418;19.080;2023-04-07T08:24:12;100413.63;;;5.27;86.74
63654;BME280;49809;47.418;19.080;2023-04-07T08:27:36;100400.00;;;5.61;85.85
63654;BME280;49809;47.418;19.080;2023-04-07T08:31:03;100400.56;;;5.88;85.64
63654;BME280;49809;47.418;19.080;2023-04-07T08:34:08;100409.22;;;5.71;84.38
63654;BME280;49809;47.418;19.080;2023-04-07T08:37:36;100407.09;;;5.36;87.26
63654;BME280;49809;47.418;19.080;2023-04-07T08:41:23;100413.25;;;5.66;87.62
63654;BME280;49809;47.418;19.080;2023-04-07T08:44:32;100414.78;;;5.81;85.41
63654;BME280;49809;47.418;19.080;2023-04-07T08:47:36;100417.59;;;5.36;88.24
63654;BME280;49809;47.418;19.080;2023-04-07T08:51:26;100418.72;;;5.47;87.66
63654;BME280;49809;47.418;19.080;2023-04-07T08:55:04;100417.66;;;5.23;88.45
63654;BME280;49809;47.418;19.080;2023-04-07T09:02:15;100414.94;;;5.11;87.77
63654;BME280;49809;47.418;19.080;2023-04-07T09:05:21;100422.22;;;5.34;90.94
63654;BME280;49809;47.418;19.080;2023-04-07T09:08:27;100419.87;;;5.26;88.97
63654;BME280;49809;47.418;19.080;2023-04-07T09:11:37;100417.59;;;5.61;89.20
63654;BME280;49809;47.418;19.080;2023-04-07T09:15:03;100429.03;;;5.66;88.71
63654;BME280;49809;47.418;19.080;2023-04-07T09:18:07;100421.94;;;5.67;88.54
63654;BME280;49809;47.418;19.080;2023-04-07T09:21:12;100424.81;;;5.65;90.56
63654;BME280;49809;47.418;19.080;2023-04-07T09:24:23;100423.00;;;5.41;90.59
63654;BME280;49809;47.418;19.080;2023-04-07T09:27:33;100423.34;;;5.69;90.34
63654;BME280;49809;47.418;19.080;2023-04-07T09:30:37;100414.38;;;6.02;88.84
63654;BME280;49809;47.418;19.080;2023-04-07T09:33:42;100417.00;;;6.02;92.42
63654;BME280;49809;47.418;19.080;2023-04-07T09:36:45;100419.81;;;5.57;92.25
63654;BME280;49809;47.418;19.080;2023-04-07T09:39:50;100427.69;;;5.08;91.05
63654;BME280;49809;47.418;19.080;2023-04-07T09:42:56;100430.59;;;6.17;89.81
63654;BME280;49809;47.418;19.080;2023-04-07T09:46:21;100427.13;;;5.55;88.13
63654;BME280;49809;47.418;19.080;2023-04-07T09:49:27;100419.47;;;6.15;88.98
63654;BME280;49809;47.418;19.080;2023-04-07T09:52:52;100427.37;;;6.15;89.14
63654;BME280;49809;47.418;19.080;2023-04-07T09:55:56;100417.94;;;6.62;86.46
63654;BME280;49809;47.418;19.080;2023-04-07T09:59:00;100419.09;;;6.96;84.19
63654;BME280;49809;47.418;19.080;2023-04-07T10:02:05;100423.22;;;6.07;82.91
63654;BME280;49809;47.418;19.080;2023-04-07T10:05:10;100425.38;;;6.10;83.80
63654;BME280;49809;47.418;19.080;2023-04-07T10:08:15;100415.50;;;6.90;83.11
63654;BME280;49809;47.418;19.080;2023-04-07T10:11:26;100416.72;;;6.76;84.43
63654;BME280;49809;47.418;19.080;2023-04-07T10:14:30;100418.59;;;7.29;81.53
63654;BME280;49809;47.418;19.080;2023-04-07T10:17:42;100419.81;;;7.26;78.66
63654;BME280;49809;47.418;19.080;2023-04-07T10:21:09;100419.63;;;7.39;79.50
63654;BME280;49809;47.418;19.080;2023-04-07T10:25:04;100420.03;;;7.13;79.00
63654;BME280;49809;47.418;19.080;2023-04-07T10:28:26;100426.56;;;6.81;80.24
63654;BME280;49809;47.418;19.080;2023-04-07T10:31:49;100426.47;;;6.87;82.99
63654;BME280;49809;47.418;19.080;2023-04-07T10:50:33;100424.09;;;7.85;73.59
63654;BME280;49809;47.418;19.080;2023-04-07T10:54:19;100419.06;;;7.49;77.10
63654;BME280;49809;47.418;19.080;2023-04-07T10:58:27;100423.31;;;8.08;75.67
63654;BME280;49809;47.418;19.080;2023-04-07T11:06:18;100428.22;;;8.05;72.16
63654;BME280;49809;47.418;19.080;2023-04-07T11:10:27;100433.81;;;7.38;73.32
63654;BME280;49809;47.418;19.080;2023-04-07T12:21:38;100421.91;;;7.94;71.39
63654;BME280;49809;47.418;19.080;2023-04-07T12:25:00;100426.41;;;7.70;70.95
63654;BME280;49809;47.418;19.080;2023-04-07T12:28:25;100424.91;;;7.63;71.86
63654;BME280;49809;47.418;19.080;2023-04-07T12:31:43;100418.94;;;7.56;73.13
63654;BME280;49809;47.418;19.080;2023-04-07T12:35:18;100414.16;;;7.53;74.62
63654;BME280;49809;47.418;19.080;2023-04-07T12:38:57;100415.03;;;8.16;69.88
63654;BME280;49809;47.418;19.080;2023-04-07T12:42:28;100417.94;;;8.03;70.76
63654;BME280;49809;47.418;19.080;2023-04-07T12:46:02;100409.75;;;7.23;74.51
63654;BME280;49809;47.418;19.080;2023-04-07T12:49:31;100422.12;;;8.27;70.37
63654;BME280;49809;47.418;19.080;2023-04-07T12:53:03;100412.12;;;8.41;69.89
63654;BME280;49809;47.418;19.080;2023-04-07T12:56:44;100419.34;;;8.74;68.04
63654;BME280;49809;47.418;19.080;2023-04-07T13:00:19;100421.59;;;8.65;67.27
63654;BME280;49809;47.418;19.080;2023-04-07T13:04:05;100420.28;;;8.68;68.50
63654;BME280;49809;47.418;19.080;2023-04-07T13:07:41;100421.19;;;8.34;68.10
63654;BME280;49809;47.418;19.080;2023-04-07T13:11:17;100423.53;;;8.58;68.80
63654;BME280;49809;47.418;19.080;2023-04-07T13:14:38;100428.72;;;8.82;67.51
63654;BME280;49809;47.418;19.080;2023-04-07T13:18:12;100420.88;;;8.30;69.09
63654;BME280;49809;47.418;19.080;2023-04-07T13:21:49;100425.34;;;8.29;69.35
63654;BME280;49809;47.418;19.080;2023-04-07T13:25:24;100421.75;;;8.24;70.99
63654;BME280;49809;47.418;19.080;2023-04-07T13:28:47;100419.03;;;8.31;68.75
63654;BME280;49809;47.418;19.080;2023-04-07T13:32:07;100415.34;;;8.20;69.65
63654;BME280;49809;47.418;19.080;2023-04-07T13:35:42;100417.66;;;8.16;70.46
63654;BME280;49809;47.418;19.080;2023-04-07T13:39:02;100420.66;;;8.32;69.00
63654;BME280;49809;47.418;19.080;2023-04-07T13:42:36;100413.87;;;8.36;69.04
63654;BME280;49809;47.418;19.080;2023-04-07T13:46:15;100414.34;;;8.33;69.28
63654;BME280;49809;47.418;19.080;2023-04-07T13:50:02;100421.88;;;8.41;69.09
63654;BME280;49809;47.418;19.080;2023-04-07T13:53:44;100423.75;;;8.17;69.91
63654;BME280;49809;47.418;19.080;2023-04-07T13:57:19;100427.91;;;7.78;71.93
63654;BME280;49809;47.418;19.080;2023-04-07T14:00:48;100426.38;;;8.05;69.50
63654;BME280;49809;47.418;19.080;2023-04-07T14:04:26;100431.56;;;7.77;70.85
63654;BME280;49809;47.418;19.080;2023-04-07T14:07:50;100438.53;;;7.71;70.83
63654;BME280;49809;47.418;19.080;2023-04-07T14:11:15;100433.97;;;7.67;71.14
63654;BME280;49809;47.418;19.080;2023-04-07T14:18:06;100433.16;;;7.55;72.64
63654;BME280;49809;47.418;19.080;2023-04-07T14:21:42;100431.56;;;7.77;72.28
63654;BME280;49809;47.418;19.080;2023-04-07T14:25:14;100426.97;;;7.61;72.32
63654;BME280;49809;47.418;19.080;2023-04-07T14:28:40;100434.06;;;7.49;72.39
63654;BME280;49809;47.418;19.080;2023-04-07T14:54:11;100439.34;;;7.49;71.67
63654;BME280;49809;47.418;19.080;2023-04-07T14:57:28;100443.25;;;7.58;71.70
63654;BME280;49809;47.418;19.080;2023-04-07T15:00:53;100444.94;;;7.52;71.47
63654;BME280;49809;47.418;19.080;2023-04-07T15:04:29;100439.31;;;7.25;72.82
63654;BME280;49809;47.418;19.080;2023-04-07T15:08:12;100445.28;;;7.44;71.32
63654;BME280;49809;47.418;19.080;2023-04-07T15:11:34;100439.09;;;7.38;71.62
63654;BME280;49809;47.418;19.080;2023-04-07T15:14:53;100443.22;;;7.34;71.07
63654;BME280;49809;47.418;19.080;2023-04-07T15:18:34;100443.84;;;7.18;73.16
63654;BME280;49809;47.418;19.080;2023-04-07T15:21:53;100446.56;;;7.12;73.22
63654;BME280;49809;47.418;19.080;2023-04-07T15:25:22;100451.09;;;6.93;74.18
63654;BME280;49809;47.418;19.080;2023-04-07T15:28:40;100456.00;;;7.19;73.94
63654;BME280;49809;47.418;19.080;2023-04-07T15:32:07;100455.28;;;7.12;74.78
63654;BME280;49809;47.418;19.080;2023-04-07T15:35:45;100452.78;;;7.17;72.65
63654;BME280;49809;47.418;19.080;2023-04-07T15:39:18;100449.31;;;7.05;74.03
63654;BME280;49809;47.418;19.080;2023-04-07T15:42:34;100450.78;;;7.01;75.52
63654;BME280;49809;47.418;19.080;2023-04-07T15:45:57;100456.75;;;7.08;76.58
63654;BME280;49809;47.418;19.080;2023-04-07T15:49:35;100457.34;;;7.10;75.48
63654;BME280;49809;47.418;19.080;2023-04-07T16:04:39;100454.78;;;6.74;78.07
63654;BME280;49809;47.418;19.080;2023-04-07T16:08:24;100460.72;;;6.69;79.75
63654;BME280;49809;47.418;19.080;2023-04-07T16:11:31;100472.22;;;6.57;80.48
63654;BME280;49809;47.418;19.080;2023-04-07T16:14:49;100472.72;;;6.47;79.83
63654;BME280;49809;47.418;19.080;2023-04-07T16:18:22;100475.88;;;6.37;81.36
63654;BME280;49809;47.418;19.080;2023-04-07T16:22:00;100478.66;;;6.24;82.65
63654;BME280;49809;47.418;19.080;2023-04-07T16:25:40;100481.13;;;6.19;82.68
63654;BME280;49809;47.418;19.080;2023-04-07T16:29:21;100484.78;;;6.18;82.28
63654;BME280;49809;47.418;19.080;2023-04-07T16:32:57;100480.69;;;6.22;82.76
63654;BME280;49809;47.418;19.080;2023-04-07T16:36:34;100482.41;;;6.10;83.88
63654;BME280;49809;47.418;19.080;2023-04-07T16:39:58;100490.78;;;6.00;84.56
63654;BME280;49809;47.418;19.080;2023-04-07T16:43:26;100494.37;;;6.06;83.82
63654;BME280;49809;47.418;19.080;2023-04-07T16:47:03;100495.19;;;6.06;83.57
63654;BME280;49809;47.418;19.080;2023-04-07T16:50:40;100490.56;;;6.02;83.54
63654;BME280;49809;47.418;19.080;2023-04-07T16:54:20;100501.44;;;6.05;83.17
63654;BME280;49809;47.418;19.080;2023-04-07T16:57:38;100506.03;;;5.92;83.76
63654;BME280;49809;47.418;19.080;2023-04-07T17:01:12;100506.28;;;5.84;83.75
63654;BME280;49809;47.418;19.080;2023-04-07T17:04:29;100500.81;;;5.85;84.10
63654;BME280;49809;47.418;19.080;2023-04-07T17:07:57;100505.25;;;5.85;84.09
63654;BME280;49809;47.418;19.080;2023-04-07T17:11:27;100498.75;;;5.94;83.12
63654;BME280;49809;47.418;19.080;2023-04-07T17:14:45;100508.91;;;5.84;83.97
63654;BME280;49809;47.418;19.080;2023-04-07T17:18:10;100515.00;;;5.78;84.47
63654;BME280;49809;47.418;19.080;2023-04-07T17:25:25;100521.28;;;5.77;85.47
63654;BME280;49809;47.418;19.080;2023-04-07T17:29:01;100528.34;;;5.76;85.45
63654;BME280;49809;47.418;19.080;2023-04-07T17:32:23;100526.44;;;5.65;86.65
63654;BME280;49809;47.418;19.080;2023-04-07T17:36:09;100526.06;;;5.61;87.37
63654;BME280;49809;47.418;19.080;2023-04-07T17:39:24;100528.50;;;5.56;87.89
63654;BME280;49809;47.418;19.080;2023-04-07T17:43:01;100536.97;;;5.58;87.65
63654;BME280;49809;47.418;19.080;2023-04-07T17:46:37;100536.78;;;5.53;88.10
63654;BME280;49809;47.418;19.080;2023-04-07T17:50:13;100547.97;;;5.42;89.26
63654;BME280;49809;47.418;19.080;2023-04-07T17:53:50;100544.75;;;5.40;88.63
63654;BME280;49809;47.418;19.080;2023-04-07T17:57:21;100563.88;;;5.47;88.19
63654;BME280;49809;47.418;19.080;2023-04-07T18:00:48;100565.94;;;5.45;87.64
63654;BME280;49809;47.418;19.080;2023-04-07T18:04:17;100567.38;;;5.41;88.15
63654;BME280;49809;47.418;19.080;2023-04-07T18:07:48;100573.38;;;5.48;87.86
63654;BME280;49809;47.418;19.080;2023-04-07T18:11:30;100577.81;;;5.48;88.17
63654;BME280;49809;47.418;19.080;2023-04-07T18:15:01;100582.69;;;5.44;88.49
63654;BME280;49809;47.418;19.080;2023-04-07T18:18:28;100586.34;;;5.43;88.85
63654;BME280;49809;47.418;19.080;2023-04-07T18:22:09;100586.34;;;5.43;88.56
63654;BME280;49809;47.418;19.080;2023-04-07T18:25:40;100590.31;;;5.52;88.40
63654;BME280;49809;47.418;19.080;2023-04-07T18:28:44;100597.66;;;5.44;88.84
63654;BME280;49809;47.418;19.080;2023-04-07T18:31:49;100604.13;;;5.41;89.32
63654;BME280;49809;47.418;19.080;2023-04-07T18:34:54;100604.13;;;5.41;89.36
63654;BME280;49809;47.418;19.080;2023-04-07T18:37:58;100613.44;;;5.37;90.47
63654;BME280;49809;47.418;19.080;2023-04-07T18:41:06;100616.53;;;5.28;91.29
63654;BME280;49809;47.418;19.080;2023-04-07T18:44:11;100623.53;;;5.40;91.11
63654;BME280;49809;47.418;19.080;2023-04-07T18:47:15;100621.16;;;5.32;91.56
63654;BME280;49809;47.418;19.080;2023-04-07T18:50:19;100617.28;;;5.28;91.69
63654;BME280;49809;47.418;19.080;2023-04-07T18:53:23;100619.34;;;5.26;91.61
63654;BME280;49809;47.418;19.080;2023-04-07T18:56:30;100635.34;;;5.18;91.96
63654;BME280;49809;47.418;19.080;2023-04-07T18:59:33;100624.84;;;5.11;92.33
63654;BME280;49809;47.418;19.080;2023-04-07T19:02:36;100628.66;;;5.15;91.73
63654;BME280;49809;47.418;19.080;2023-04-07T19:05:50;100623.44;;;5.09;92.32
63654;BME280;49809;47.418;19.080;2023-04-07T19:09:02;100630.09;;;5.05;92.82
63654;BME280;49809;47.418;19.080;2023-04-07T19:12:20;100615.53;;;5.22;92.11
63654;BME280;49809;47.418;19.080;2023-04-07T19:15:27;100629.50;;;5.09;92.77
63654;BME280;49809;47.418;19.080;2023-04-07T19:18:36;100628.47;;;5.10;92.87
63654;BME280;49809;47.418;19.080;2023-04-07T19:21:39;100628.53;;;4.97;94.27
63654;BME280;49809;47.418;19.080;2023-04-07T19:24:46;100633.37;;;4.94;93.74
63654;BME280;49809;47.418;19.080;2023-04-07T19:27:50;100625.91;;;4.91;95.30
63654;BME280;49809;47.418;19.080;2023-04-07T19:31:03;100633.97;;;4.96;95.14
63654;BME280;49809;47.418;19.080;2023-04-07T19:34:09;100638.84;;;4.86;95.90
63654;BME280;49809;47.418;19.080;2023-04-07T19:37:13;100638.25;;;4.70;97.58
63654;BME280;49809;47.418;19.080;2023-04-07T19:40:22;100639.06;;;4.71;98.18
63654;BME280;49809;47.418;19.080;2023-04-07T19:43:29;100639.09;;;4.58;99.98
63654;BME280;49809;47.418;19.080;2023-04-07T19:46:52;100641.72;;;4.64;99.33
63654;BME280;49809;47.418;19.080;2023-04-07T19:49:58;100638.91;;;4.59;100.00
63654;BME280;49809;47.418;19.080;2023-04-07T19:53:01;100641.53;;;4.59;100.00
63654;BME280;49809;47.418;19.080;2023-04-07T19:56:05;100645.53;;;4.55;100.00
63654;BME280;49809;47.418;19.080;2023-04-07T19:59:08;100654.03;;;4.44;100.00
63654;BME280;49809;47.418;19.080;2023-04-07T20:02:11;100655.25;;;4.48;100.00
63654;BME280;49809;47.418;19.080;2023-04-07T20:05:16;100652.41;;;4.50;100.00
63654;BME280;49809;47.418;19.080;2023-04-07T20:08:21;100655.25;;;4.48;100.00
63654;BME280;49809;47.418;19.080;2023-04-07T20:11:44;100657.25;;;4.26;100.00
63654;BME280;49809;47.418;19.080;2023-04-07T20:14:51;100654.41;;;4.41;100.00
63654;BME280;49809;47.418;19.080;2023-04-07T20:17:59;100648.78;;;4.37;100.00
63654;BME280;49809;47.418;19.080;2023-04-07T20:21:03;100652.81;;;4.27;100.00
63654;BME280;49809;47.418;19.080;2023-04-07T20:24:11;100645.16;;;4.32;100.00
63654;BME280;49809;47.418;19.080;2023-04-07T20:27:15;100644.75;;;4.35;100.00
63654;BME280;49809;47.418;19.080;2023-04-07T20:30:21;100650.19;;;4.20;100.00
63654;BME280;49809;47.418;19.080;2023-04-07T20:33:24;100656.84;;;4.23;100.00
63654;BME280;49809;47.418;19.080;2023-04-07T20:36:28;100663.50;;;4.19;100.00
63654;BME280;49809;47.418;19.080;2023-04-07T20:39:50;100661.88;;;4.24;100.00
63654;BME280;49809;47.418;19.080;2023-04-07T20:42:55;100668.53;;;4.14;100.00
63654;BME280;49809;47.418;19.080;2023-04-07T20:45:58;100660.25;;;4.17;100.00
63654;BME280;49809;47.418;19.080;2023-04-07T20:49:11;100660.25;;;4.17;100.00
63654;BME280;49809;47.418;19.080;2023-04-07T20:52:43;100656.44;;;4.19;100.00
63654;BME280;49809;47.418;19.080;2023-04-07T20:55:46;100664.47;;;3.98;100.00
63654;BME280;49809;47.418;19.080;2023-04-07T20:58:52;100665.69;;;4.09;100.00
63654;BME280;49809;47.418;19.080;2023-04-07T21:01:56;100666.47;;;3.89;100.00
63654;BME280;49809;47.418;19.080;2023-04-07T21:05:01;100666.44;;;3.83;100.00
63654;BME280;49809;47.418;19.080;2023-04-07T21:08:07;100665.66;;;3.89;100.00
63654;BME280;49809;47.418;19.080;2023-04-07T21:11:18;100669.66;;;3.78;100.00
63654;BME280;49809;47.418;19.080;2023-04-07T21:14:32;100665.44;;;3.71;100.00